createdAt,value
2018-07-08T00:00:42.916Z,1.47
2018-07-08T00:03:11.258Z,0.70
2018-07-08T00:05:39.579Z,1.42
2018-07-08T00:08:09.185Z,0.72
2018-07-08T00:10:41.013Z,1.45
2018-07-08T00:13:10.059Z,0.90
2018-07-08T00:15:38.379Z,1.10
2018-07-08T00:18:06.746Z,1.25
2018-07-08T00:20:35.100Z,0.93
2018-07-08T00:23:03.438Z,1.15
2018-07-08T00:25:31.789Z,1.30
2018-07-08T00:28:00.118Z,0.60
2018-07-08T00:30:28.447Z,0.72
2018-07-08T00:32:56.821Z,0.78
2018-07-08T00:35:25.193Z,0.70
2018-07-08T00:37:53.577Z,0.60
2018-07-08T00:40:21.868Z,0.93
2018-07-08T00:42:50.191Z,1.02
2018-07-08T00:45:18.532Z,0.95
2018-07-08T00:47:46.878Z,1.30
2018-07-08T00:50:16.101Z,1.32
2018-07-08T00:52:44.524Z,1.12
2018-07-08T00:55:12.840Z,1.10
2018-07-08T00:57:40.974Z,0.98
2018-07-08T01:00:19.439Z,1.90
2018-07-08T01:02:47.759Z,0.72
2018-07-08T01:05:16.076Z,1.02
2018-07-08T01:07:44.419Z,1.10
2018-07-08T01:10:12.764Z,1.10
2018-07-08T01:12:41.147Z,1.07
2018-07-08T01:15:09.492Z,1.30
2018-07-08T01:17:37.843Z,1.00
2018-07-08T01:20:06.170Z,1.17
2018-07-08T01:22:34.574Z,1.00
2018-07-08T01:25:11.113Z,1.20
2018-07-08T01:27:39.714Z,0.85
2018-07-08T01:30:08.489Z,1.20
2018-07-08T01:32:36.819Z,0.95
2018-07-08T01:35:07.272Z,1.15
2018-07-08T01:37:36.004Z,1.20
2018-07-08T01:40:04.577Z,0.53
2018-07-08T01:42:32.914Z,0.90
2018-07-08T01:45:01.837Z,1.32
2018-07-08T01:47:30.173Z,0.55
2018-07-08T01:49:58.518Z,1.37
2018-07-08T01:52:27.079Z,1.20
2018-07-08T01:54:55.958Z,1.25
2018-07-08T01:57:25.592Z,1.10
2018-07-08T01:59:54.140Z,0.82
2018-07-08T02:02:23.153Z,1.20
2018-07-08T02:04:52.428Z,1.40
2018-07-08T02:07:20.767Z,0.82
2018-07-08T02:09:49.613Z,0.82
2018-07-08T02:12:18.527Z,0.93
2018-07-08T02:14:47.184Z,0.80
2018-07-08T02:17:15.592Z,1.10
2018-07-08T02:19:43.918Z,1.02
2018-07-08T02:22:12.273Z,0.85
2018-07-08T02:24:40.636Z,0.90
2018-07-08T02:27:09.011Z,1.52
2018-07-08T02:29:38.274Z,1.42
2018-07-08T02:32:06.956Z,1.10
2018-07-08T02:34:35.332Z,0.98
2018-07-08T02:37:03.923Z,1.17
2018-07-08T02:39:32.321Z,1.15
2018-07-08T02:42:00.976Z,1.25
2018-07-08T02:44:29.359Z,1.40
2018-07-08T02:46:57.709Z,0.85
2018-07-08T02:49:26.038Z,1.10
2018-07-08T02:51:54.384Z,1.52
2018-07-08T02:54:22.707Z,1.20
2018-07-08T02:56:51.049Z,0.98
2018-07-08T02:59:19.405Z,1.42
2018-07-08T03:01:47.738Z,1.05
2018-07-08T03:04:16.076Z,1.70
2018-07-08T03:06:44.393Z,1.37
2018-07-08T03:09:12.736Z,1.40
2018-07-08T03:11:41.045Z,1.42
2018-07-08T03:14:09.386Z,1.12
2018-07-08T03:16:37.704Z,1.00
2018-07-08T03:19:06.145Z,1.07
2018-07-08T03:21:34.465Z,1.42
2018-07-08T03:24:02.824Z,1.90
2018-07-08T03:26:31.133Z,1.30
2018-07-08T03:28:59.459Z,1.50
2018-07-08T03:31:27.754Z,1.22
2018-07-08T03:33:56.647Z,1.35
2018-07-08T03:36:24.952Z,1.52
2018-07-08T03:38:53.337Z,1.27
2018-07-08T03:41:21.680Z,1.45
2018-07-08T03:43:50.024Z,1.80
2018-07-08T03:46:18.331Z,1.30
2018-07-08T03:48:46.668Z,0.95
2018-07-08T03:51:15.024Z,1.02
2018-07-08T03:53:43.353Z,1.02
2018-07-08T03:56:11.728Z,0.80
2018-07-08T03:58:40.047Z,1.60
2018-07-08T04:01:08.380Z,1.50
2018-07-08T04:03:36.738Z,1.50
2018-07-08T04:06:05.252Z,1.10
2018-07-08T04:08:33.587Z,1.25
2018-07-08T04:11:01.930Z,0.80
2018-07-08T04:13:30.248Z,1.35
2018-07-08T04:15:58.570Z,1.20
2018-07-08T04:18:26.898Z,1.65
2018-07-08T04:20:55.221Z,1.22
2018-07-08T04:23:23.595Z,1.15
2018-07-08T04:25:51.909Z,1.42
2018-07-08T04:28:20.252Z,1.12
2018-07-08T04:30:48.617Z,1.27
2018-07-08T04:33:17.703Z,1.67
2018-07-08T04:35:46.030Z,1.00
2018-07-08T04:38:14.357Z,1.37
2018-07-08T04:40:42.697Z,1.15
2018-07-08T04:43:11.047Z,2.27
2018-07-08T04:45:39.359Z,2.17
2018-07-08T04:48:07.688Z,1.17
2018-07-08T04:50:37.315Z,1.70
2018-07-08T04:53:05.624Z,1.60
2018-07-08T04:55:33.970Z,1.60
2018-07-08T04:58:02.283Z,1.40
2018-07-08T05:00:30.712Z,1.30
2018-07-08T05:02:59.027Z,1.17
2018-07-08T05:05:27.344Z,1.85
2018-07-08T05:07:55.676Z,1.40
2018-07-08T05:10:24.024Z,1.30
2018-07-08T05:12:52.396Z,1.80
2018-07-08T05:15:20.740Z,1.62
2018-07-08T05:17:49.044Z,1.07
2018-07-08T05:20:17.395Z,1.27
2018-07-08T05:22:45.720Z,1.93
2018-07-08T05:25:14.129Z,1.80
2018-07-08T05:27:42.460Z,1.60
2018-07-08T05:30:10.838Z,1.47
2018-07-08T05:32:39.866Z,1.92
2018-07-08T05:35:08.182Z,2.05
2018-07-08T05:37:36.498Z,1.72
2018-07-08T05:40:04.862Z,1.27
2018-07-08T05:42:33.216Z,1.65
2018-07-08T05:45:01.598Z,1.55
2018-07-08T05:47:29.894Z,1.17
2018-07-08T05:49:57.990Z,1.85
2018-07-08T05:52:26.306Z,1.80
2018-07-08T05:54:54.663Z,1.85
2018-07-08T05:57:23.006Z,2.70
2018-07-08T05:59:51.376Z,1.87
2018-07-08T06:02:19.720Z,1.40
2018-07-08T06:04:48.065Z,1.30
2018-07-08T06:07:16.369Z,1.65
2018-07-08T06:09:44.711Z,2.47
2018-07-08T06:12:13.025Z,2.00
2018-07-08T06:14:41.976Z,1.98
2018-07-08T06:17:10.365Z,2.47
2018-07-08T06:19:38.710Z,2.10
2018-07-08T06:22:07.375Z,2.30
2018-07-08T06:24:35.816Z,1.85
2018-07-08T06:27:04.140Z,2.55
2018-07-08T06:29:32.450Z,2.75
2018-07-08T06:32:00.800Z,2.52
2018-07-08T06:34:29.137Z,2.55
2018-07-08T06:36:57.491Z,2.33
2018-07-08T06:39:25.802Z,3.55
2018-07-08T06:41:54.149Z,2.58
2018-07-08T06:44:22.496Z,2.15
2018-07-08T06:46:57.490Z,2.55
2018-07-08T06:49:25.832Z,2.67
2018-07-08T06:51:54.537Z,1.98
2018-07-08T06:54:22.864Z,2.65
2018-07-08T06:56:51.191Z,2.72
2018-07-08T06:59:19.532Z,3.17
2018-07-08T07:01:47.859Z,2.60
2018-07-08T07:04:16.175Z,3.08
2018-07-08T07:06:44.682Z,3.27
2018-07-08T07:09:14.025Z,3.30
2018-07-08T07:11:42.367Z,3.05
2018-07-08T07:14:10.691Z,3.65
2018-07-08T07:16:39.045Z,3.20
2018-07-08T07:19:11.828Z,3.60
2018-07-08T07:21:40.209Z,3.52
2018-07-08T07:24:08.550Z,3.02
2018-07-08T07:26:38.023Z,4.17
2018-07-08T07:29:06.752Z,3.37
2018-07-08T07:31:35.149Z,5.10
2018-07-08T07:34:03.502Z,5.12
2018-07-08T07:36:32.729Z,4.12
2018-07-08T07:39:01.040Z,4.30
2018-07-08T07:41:29.421Z,4.97
2018-07-08T07:43:57.763Z,3.00
2018-07-08T07:46:26.111Z,4.20
2018-07-08T07:48:54.464Z,4.55
2018-07-08T07:51:22.918Z,4.90
2018-07-08T07:53:51.247Z,5.20
2018-07-08T07:56:19.647Z,5.03
2018-07-08T07:58:47.985Z,4.80
2018-07-08T08:01:16.331Z,4.35
2018-07-08T08:03:44.639Z,4.05
2018-07-08T08:06:12.999Z,4.65
2018-07-08T08:08:41.438Z,4.50
2018-07-08T08:11:09.870Z,4.12
2018-07-08T08:13:48.339Z,5.37
2018-07-08T08:16:16.736Z,5.47
2018-07-08T08:18:47.108Z,4.47
2018-07-08T08:21:15.216Z,5.00
2018-07-08T08:23:43.649Z,9.43
2018-07-08T08:26:12.788Z,5.78
2018-07-08T08:28:41.310Z,4.58
2018-07-08T08:31:09.820Z,5.15
2018-07-08T08:33:42.922Z,5.03
2018-07-08T08:36:11.467Z,3.90
2018-07-08T08:38:39.905Z,4.60
2018-07-08T08:41:09.997Z,4.25
2018-07-08T08:43:38.362Z,4.80
2018-07-08T08:46:06.457Z,4.83
2018-07-08T08:48:35.022Z,4.37
2018-07-08T08:51:05.589Z,5.53
2018-07-08T08:53:36.631Z,4.47
2018-07-08T08:56:12.982Z,5.00
2018-07-08T08:58:43.347Z,4.95
2018-07-08T09:01:11.733Z,5.50
2018-07-08T09:03:41.708Z,4.78
2018-07-08T09:06:12.175Z,5.70
2018-07-08T09:08:41.424Z,5.12
2018-07-08T09:11:10.016Z,5.28
2018-07-08T09:13:41.324Z,5.47
2018-07-08T09:16:09.695Z,5.28
2018-07-08T09:18:38.327Z,5.20
2018-07-08T09:21:09.160Z,5.05
2018-07-08T09:23:37.527Z,5.40
2018-07-08T09:26:05.922Z,5.65
2018-07-08T09:28:36.329Z,4.90
2018-07-08T09:31:04.689Z,4.62
2018-07-08T09:33:32.898Z,5.37
2018-07-08T09:36:01.429Z,5.40
2018-07-08T09:38:29.789Z,5.80
2018-07-08T09:40:58.217Z,4.67
2018-07-08T09:43:26.571Z,5.22
2018-07-08T09:45:54.983Z,6.92
2018-07-08T09:48:23.322Z,6.37
2018-07-08T09:50:51.663Z,5.87
2018-07-08T09:53:20.680Z,6.15
2018-07-08T09:55:49.838Z,5.50
2018-07-08T09:58:18.184Z,5.95
2018-07-08T10:00:46.684Z,5.40
2018-07-08T10:03:15.206Z,5.08
2018-07-08T10:05:43.525Z,5.40
2018-07-08T10:08:11.903Z,5.65
2018-07-08T10:13:23.864Z,5.90
2018-07-08T10:15:52.187Z,5.08
2018-07-08T10:18:27.382Z,5.30
2018-07-08T10:21:03.648Z,5.00
2018-07-08T10:23:32.277Z,4.92
2018-07-08T10:26:00.590Z,4.70
2018-07-08T10:28:29.008Z,5.22
2018-07-08T10:30:57.394Z,4.22
2018-07-08T10:33:30.056Z,4.47
2018-07-08T10:36:04.431Z,4.33
2018-07-08T10:38:40.046Z,4.65
2018-07-08T10:41:08.371Z,4.53
2018-07-08T10:43:36.842Z,3.92
2018-07-08T10:46:05.280Z,6.40
2018-07-08T10:48:33.646Z,6.15
2018-07-08T10:51:01.978Z,4.45
2018-07-08T10:53:30.390Z,4.25
2018-07-08T10:55:58.968Z,4.20
2018-07-08T10:58:27.386Z,4.00
2018-07-08T11:00:55.728Z,5.20
2018-07-08T11:03:24.165Z,5.47
2018-07-08T11:05:52.514Z,4.75
2018-07-08T11:08:20.971Z,4.70
2018-07-08T11:10:50.658Z,4.67
2018-07-08T11:13:18.931Z,4.40
2018-07-08T11:15:47.309Z,5.45
2018-07-08T11:18:15.650Z,5.37
2018-07-08T11:20:44.104Z,6.10
2018-07-08T11:23:12.470Z,6.08
2018-07-08T11:25:40.863Z,4.67
2018-07-08T11:28:09.567Z,4.35
2018-07-08T11:30:37.997Z,4.65
2018-07-08T11:33:07.358Z,5.25
2018-07-08T11:35:35.682Z,4.90
2018-07-08T11:38:04.031Z,4.72
2018-07-08T11:40:32.512Z,5.15
2018-07-08T11:43:01.204Z,4.42
2018-07-08T11:45:29.540Z,5.28
2018-07-08T11:47:57.898Z,4.83
2018-07-08T11:50:26.286Z,4.05
2018-07-08T11:52:54.627Z,4.87
2018-07-08T11:55:23.157Z,4.92
2018-07-08T11:57:51.589Z,4.33
2018-07-08T12:00:19.987Z,4.03
2018-07-08T12:02:48.368Z,4.35
2018-07-08T12:05:16.710Z,4.65
2018-07-08T12:07:45.046Z,3.80
2018-07-08T12:10:13.455Z,4.12
2018-07-08T12:12:41.801Z,4.70
2018-07-08T12:15:10.157Z,4.58
2018-07-08T12:17:38.476Z,4.47
2018-07-08T12:20:06.914Z,4.00
2018-07-08T12:22:35.220Z,4.55
2018-07-08T12:25:03.615Z,4.87
2018-07-08T12:27:32.030Z,4.47
2018-07-08T12:30:00.384Z,4.10
2018-07-08T12:32:28.459Z,4.30
2018-07-08T12:34:56.869Z,4.55
2018-07-08T12:37:25.200Z,4.28
2018-07-08T12:39:53.561Z,4.33
2018-07-08T12:42:21.911Z,4.35
2018-07-08T12:44:50.326Z,4.50
2018-07-08T12:47:18.611Z,4.08
2018-07-08T12:49:47.008Z,3.72
2018-07-08T12:52:15.336Z,3.75
2018-07-08T12:54:43.750Z,3.70
2018-07-08T12:57:12.092Z,3.95
2018-07-08T12:59:40.450Z,4.72
2018-07-08T13:02:08.868Z,3.83
2018-07-08T13:04:39.823Z,4.72
2018-07-08T13:07:08.130Z,3.95
2018-07-08T13:09:38.727Z,3.95
2018-07-08T13:12:07.064Z,4.50
2018-07-08T13:14:36.003Z,4.33
2018-07-08T13:17:04.351Z,4.60
2018-07-08T13:19:32.955Z,4.45
2018-07-08T13:22:01.283Z,4.08
2018-07-08T13:24:29.871Z,4.22
2018-07-08T13:26:58.283Z,4.80
2018-07-08T13:29:26.656Z,4.53
2018-07-08T13:31:55.134Z,4.72
2018-07-08T13:34:24.349Z,3.95
2018-07-08T13:36:52.761Z,3.77
2018-07-08T13:39:21.472Z,4.47
2018-07-08T13:41:49.790Z,4.22
2018-07-08T13:44:19.138Z,4.50
2018-07-08T13:46:47.692Z,4.62
2018-07-08T13:49:16.087Z,4.33
2018-07-08T13:51:44.837Z,3.85
2018-07-08T13:54:13.257Z,4.45
2018-07-08T13:56:41.596Z,4.08
2018-07-08T13:59:10.019Z,4.30
2018-07-08T14:01:38.386Z,4.35
2018-07-08T14:04:06.803Z,3.50
2018-07-08T14:06:35.145Z,4.28
2018-07-08T14:09:03.666Z,3.60
2018-07-08T14:11:32.056Z,4.42
2018-07-08T14:14:00.397Z,3.72
2018-07-08T14:16:28.798Z,3.62
2018-07-08T14:18:57.137Z,3.95
2018-07-08T14:21:25.461Z,3.90
2018-07-08T14:23:54.063Z,4.58
2018-07-08T14:26:22.431Z,4.35
2018-07-08T14:28:51.765Z,3.80
2018-07-08T14:31:20.217Z,4.10
2018-07-08T14:33:49.507Z,4.12
2018-07-08T14:36:17.969Z,3.70
2018-07-08T14:38:46.375Z,3.77
2018-07-08T14:41:14.740Z,3.80
2018-07-08T14:43:43.131Z,4.53
2018-07-08T14:46:11.540Z,4.12
2018-07-08T14:48:40.044Z,7.00
2018-07-08T14:51:08.456Z,4.55
2018-07-08T14:53:36.917Z,3.58
2018-07-08T14:56:05.513Z,3.77
2018-07-08T14:58:33.968Z,4.22
2018-07-08T15:01:02.840Z,3.80
2018-07-08T15:03:31.178Z,3.75
2018-07-08T15:05:59.542Z,4.15
2018-07-08T15:08:27.933Z,3.77
2018-07-08T15:10:56.293Z,4.25
2018-07-08T15:13:24.738Z,3.70
2018-07-08T15:15:53.190Z,3.87
2018-07-08T15:18:21.439Z,3.58
2018-07-08T15:20:49.842Z,3.83
2018-07-08T15:23:18.191Z,3.85
2018-07-08T15:25:46.554Z,3.90
2018-07-08T15:28:15.032Z,3.65
2018-07-08T15:30:43.401Z,3.65
2018-07-08T15:33:12.214Z,3.65
2018-07-08T15:35:40.555Z,3.42
2018-07-08T15:38:08.966Z,3.12
2018-07-08T15:40:37.425Z,2.90
2018-07-08T15:43:06.688Z,3.77
2018-07-08T15:45:35.140Z,3.15
2018-07-08T15:48:03.512Z,3.33
2018-07-08T15:50:31.919Z,3.47
2018-07-08T15:53:00.300Z,3.27
2018-07-08T15:55:28.678Z,3.20
2018-07-08T15:57:57.144Z,3.20
2018-07-08T16:00:25.501Z,3.10
2018-07-08T16:02:54.085Z,2.70
2018-07-08T16:05:23.925Z,3.75
2018-07-08T16:07:52.783Z,3.45
2018-07-08T16:10:21.680Z,4.45
2018-07-08T16:12:52.763Z,6.28
2018-07-08T16:15:21.143Z,4.47
2018-07-08T16:17:49.564Z,2.83
2018-07-08T16:20:27.397Z,4.92
2018-07-08T16:22:55.799Z,3.08
2018-07-08T16:25:24.327Z,3.98
2018-07-08T16:27:52.717Z,3.40
2018-07-08T16:30:23.314Z,3.20
2018-07-08T16:32:52.830Z,3.27
2018-07-08T16:35:23.733Z,2.85
2018-07-08T16:37:54.738Z,3.58
2018-07-08T16:40:23.278Z,2.83
2018-07-08T16:43:01.098Z,3.12
2018-07-08T16:45:30.042Z,2.80
2018-07-08T16:48:00.326Z,2.75
2018-07-08T16:50:28.702Z,2.87
2018-07-08T16:52:57.661Z,3.12
2018-07-08T16:55:26.311Z,3.40
2018-07-08T16:57:54.976Z,2.42
2018-07-08T17:00:23.539Z,2.55
2018-07-08T17:02:55.234Z,2.58
2018-07-08T17:05:23.918Z,2.50
2018-07-08T17:07:52.606Z,2.65
2018-07-08T17:10:21.338Z,2.70
2018-07-08T17:12:50.240Z,2.60
2018-07-08T17:15:19.833Z,2.87
2018-07-08T17:17:48.709Z,2.98
2018-07-08T17:20:17.430Z,2.40
2018-07-08T17:22:46.233Z,2.15
2018-07-08T17:25:14.710Z,2.20
2018-07-08T17:27:43.088Z,2.30
2018-07-08T17:30:11.419Z,1.95
2018-07-08T17:32:39.811Z,2.65
2018-07-08T17:35:08.200Z,2.27
2018-07-08T17:37:36.631Z,2.10
2018-07-08T17:40:05.107Z,2.22
2018-07-08T17:42:33.681Z,2.33
2018-07-08T17:45:02.134Z,2.17
2018-07-08T17:47:30.543Z,2.15
2018-07-08T17:49:59.016Z,3.50
2018-07-08T17:52:28.998Z,3.77
2018-07-08T17:54:57.551Z,2.72
2018-07-08T17:57:26.076Z,2.45
2018-07-08T17:59:54.520Z,2.58
2018-07-08T18:02:23.097Z,2.22
2018-07-08T18:04:51.538Z,2.25
2018-07-08T18:07:19.946Z,2.52
2018-07-08T18:09:48.465Z,1.98
2018-07-08T18:12:16.872Z,5.05
2018-07-08T18:14:45.265Z,2.92
2018-07-08T18:17:13.704Z,2.30
2018-07-08T18:19:42.118Z,1.85
2018-07-08T18:22:10.618Z,2.00
2018-07-08T18:24:39.008Z,2.00
2018-07-08T18:27:07.366Z,3.05
2018-07-08T18:29:36.296Z,2.95
2018-07-08T18:32:04.622Z,2.10
2018-07-08T18:34:32.988Z,1.90
2018-07-08T18:37:01.443Z,2.12
2018-07-08T18:39:29.932Z,2.17
2018-07-08T18:41:58.275Z,2.30
2018-07-08T18:44:26.739Z,2.33
2018-07-08T18:46:55.180Z,2.37
2018-07-08T18:49:23.517Z,1.90
2018-07-08T18:51:52.440Z,2.27
2018-07-08T18:54:20.864Z,2.22
2018-07-08T18:56:49.669Z,2.12
2018-07-08T18:59:18.116Z,2.35
2018-07-08T19:01:46.451Z,1.87
2018-07-08T19:04:14.981Z,2.25
2018-07-08T19:06:43.368Z,2.12
2018-07-08T19:09:11.749Z,2.08
2018-07-08T19:11:40.097Z,2.52
2018-07-08T19:14:09.036Z,2.30
2018-07-08T19:16:37.402Z,2.27
2018-07-08T19:19:05.767Z,2.02
2018-07-08T19:21:34.093Z,2.12
2018-07-08T19:24:02.440Z,1.95
2018-07-08T19:26:31.625Z,2.40
2018-07-08T19:29:00.147Z,2.00
2018-07-08T19:31:28.498Z,1.40
2018-07-08T19:33:56.884Z,2.02
2018-07-08T19:36:25.253Z,1.57
2018-07-08T19:38:53.619Z,2.05
2018-07-08T19:41:21.972Z,1.90
2018-07-08T19:43:50.110Z,1.77
2018-07-08T19:46:20.334Z,2.12
2018-07-08T19:48:49.995Z,1.98
2018-07-08T19:51:18.320Z,2.15
2018-07-08T19:53:47.139Z,1.80
2018-07-08T19:56:15.480Z,2.02
2018-07-08T19:58:44.136Z,1.82
2018-07-08T20:01:12.515Z,2.50
2018-07-08T20:03:41.705Z,2.05
2018-07-08T20:06:12.037Z,1.70
2018-07-08T20:08:40.815Z,1.87
2018-07-08T20:11:09.187Z,2.33
2018-07-08T20:13:37.608Z,2.22
2018-07-08T20:16:06.040Z,2.02
2018-07-08T20:18:39.579Z,2.25
2018-07-08T20:21:08.643Z,2.00
2018-07-08T20:23:38.050Z,1.90
2018-07-08T20:26:07.662Z,1.67
2018-07-08T20:28:36.173Z,2.10
2018-07-08T20:31:08.905Z,1.85
2018-07-08T20:33:38.067Z,2.15
2018-07-08T20:36:07.465Z,2.20
2018-07-08T20:38:36.275Z,2.33
2018-07-08T20:41:04.782Z,2.15
2018-07-08T20:43:33.795Z,2.15
2018-07-08T20:46:08.232Z,1.60
2018-07-08T20:48:37.275Z,2.02
2018-07-08T20:51:05.611Z,2.12
2018-07-08T20:53:33.956Z,2.12
2018-07-08T20:56:02.633Z,2.22
2018-07-08T20:58:30.994Z,2.02
2018-07-08T21:00:59.377Z,2.42
2018-07-08T21:03:30.409Z,2.00
2018-07-08T21:05:58.490Z,2.25
2018-07-08T21:08:27.321Z,1.65
2018-07-08T21:10:55.668Z,2.15
2018-07-08T21:13:28.644Z,2.12
2018-07-08T21:16:00.759Z,1.80
2018-07-08T21:18:29.117Z,1.85
2018-07-08T21:20:57.459Z,2.33
2018-07-08T21:23:26.046Z,2.15
2018-07-08T21:25:54.784Z,2.00
2018-07-08T21:28:23.495Z,1.72
2018-07-08T21:30:52.983Z,2.30
2018-07-08T21:33:21.987Z,2.08
2018-07-08T21:35:50.324Z,2.20
2018-07-08T21:38:18.685Z,2.10
2018-07-08T21:40:48.603Z,2.42
2018-07-08T21:43:16.981Z,2.40
2018-07-08T21:45:45.331Z,2.33
2018-07-08T21:48:13.768Z,2.20
2018-07-08T21:50:42.174Z,2.27
2018-07-08T21:53:10.590Z,2.55
2018-07-08T21:55:38.944Z,2.67
2018-07-08T21:58:07.262Z,2.27
2018-07-08T22:00:35.623Z,1.85
2018-07-08T22:03:03.725Z,2.12
2018-07-08T22:05:32.096Z,2.52
2018-07-08T22:08:04.231Z,2.30
2018-07-08T22:10:32.874Z,2.10
2018-07-08T22:13:02.374Z,2.27
2018-07-08T22:15:30.883Z,2.08
2018-07-08T22:17:59.266Z,2.35
2018-07-08T22:20:27.904Z,2.58
2018-07-08T22:22:56.200Z,2.12
2018-07-08T22:25:24.571Z,2.42
2018-07-08T22:27:52.894Z,1.87
2018-07-08T22:30:21.270Z,1.98
2018-07-08T22:32:49.632Z,2.17
2018-07-08T22:35:18.044Z,2.70
2018-07-08T22:37:46.381Z,2.35
2018-07-08T22:40:14.759Z,2.10
2018-07-08T22:42:43.180Z,1.90
2018-07-08T22:45:11.564Z,2.20
2018-07-08T22:47:39.971Z,2.45
2018-07-08T22:50:08.334Z,3.20
2018-07-08T22:52:37.053Z,2.55
2018-07-08T22:55:05.627Z,3.65
2018-07-08T22:57:34.068Z,2.25
2018-07-08T23:00:13.803Z,2.60
2018-07-08T23:02:46.298Z,2.80
2018-07-08T23:05:15.928Z,2.90
2018-07-08T23:07:44.301Z,2.72
2018-07-08T23:10:15.191Z,2.42
2018-07-08T23:12:43.744Z,2.22
2018-07-08T23:15:12.072Z,2.00
2018-07-08T23:17:46.165Z,2.30
2018-07-08T23:20:16.158Z,2.55
2018-07-08T23:23:00.414Z,2.42
2018-07-08T23:25:28.758Z,2.77
2018-07-08T23:27:57.770Z,2.55
2018-07-08T23:30:26.127Z,2.72
2018-07-08T23:32:54.526Z,2.35
2018-07-08T23:35:22.890Z,2.15
2018-07-08T23:37:51.297Z,2.27
2018-07-08T23:40:19.617Z,2.72
2018-07-08T23:42:47.953Z,2.87
2018-07-08T23:45:18.935Z,2.60
2018-07-08T23:47:47.280Z,2.60
2018-07-08T23:50:15.732Z,2.25
2018-07-08T23:52:44.143Z,3.12
2018-07-08T23:55:12.469Z,2.40
2018-07-08T23:57:40.873Z,2.02
